Time;durP1;ratioP1;P1;durP2;ratioP2;P2;SDS_P1;SDS_P2;PMS_P1;PMS_P2;Temp;Humidity;BMP_temperature;BMP_pressure;BME280_temperature;BME280_humidity;BME280_pressure;Samples;Min_cycle;Max_cycle;Signal;HPM_P1;HPM_P2
2022/03/15 00:06:43;;;;;;;10.18;6.20;;;;;;;20.62;38.13;102094.56;20630896;28;97533;-76
2022/03/15 00:16:43;;;;;;;10.82;6.70;;;;;;;20.62;37.83;102094.56;20636968;28;99835;-76
2022/03/15 00:26:44;;;;;;;10.10;6.47;;;;;;;20.58;38.40;102071.06;20643582;28;97772;-76
2022/03/15 00:36:45;;;;;;;11.35;6.72;;;;;;;20.55;38.36;102077.34;20652690;28;101333;-76
2022/03/15 00:46:46;;;;;;;11.10;6.80;;;;;;;20.55;38.12;102077.34;20650949;28;101782;-76
2022/03/15 00:56:46;;;;;;;10.63;6.63;;;;;;;20.53;38.59;102071.31;20647325;28;98423;-76
2022/03/15 01:06:47;;;;;;;10.73;7.38;;;;;;;20.54;38.30;102049.31;20636531;28;98764;-76
2022/03/15 01:16:48;;;;;;;11.83;6.80;;;;;;;20.52;38.58;102051.19;20648679;28;101676;-76
2022/03/15 01:26:50;;;;;;;10.77;6.85;;;;;;;20.49;38.09;102043.44;20645979;28;100838;-76
2022/03/15 01:36:51;;;;;;;12.15;7.53;;;;;;;20.45;38.40;102031.38;20635753;28;96929;-77
2022/03/15 01:46:51;;;;;;;10.85;7.07;;;;;;;20.40;38.63;102044.72;20686406;27;97150;-77
2022/03/15 01:56:52;;;;;;;11.05;6.85;;;;;;;20.41;38.74;102042.94;20730155;27;98690;-76
2022/03/15 02:07:06;;;;;;;11.07;6.95;;;;;;;20.39;38.46;102026.41;20729320;27;97365;-76
2022/03/15 02:17:06;;;;;;;11.20;6.80;;;;;;;20.36;38.46;102034.41;20737961;27;97528;-76
2022/03/15 02:27:08;;;;;;;9.43;6.65;;;;;;;20.34;39.10;102026.63;20738754;27;99674;-76
2022/03/15 02:37:09;;;;;;;11.77;7.10;;;;;;;20.31;39.00;102040.75;20736200;27;96999;-76
2022/03/15 02:47:10;;;;;;;10.13;6.63;;;;;;;20.33;38.66;102047.75;20735704;27;97701;-76
2022/03/15 02:57:12;;;;;;;11.18;6.97;;;;;;;20.28;39.33;102054.06;20726678;27;98841;-76
2022/03/15 03:07:14;;;;;;;10.30;7.07;;;;;;;20.28;38.66;102038.28;20725506;27;99386;-77
2022/03/15 03:17:15;;;;;;;10.25;6.65;;;;;;;20.25;39.14;102040.19;20733571;27;97658;-75
2022/03/15 03:27:15;;;;;;;10.77;6.85;;;;;;;20.21;39.00;102034.22;20738732;27;97197;-77
2022/03/15 03:37:15;;;;;;;13.25;6.85;;;;;;;20.20;38.92;102061.47;20725417;27;97376;-76
2022/03/15 03:47:17;;;;;;;9.63;6.67;;;;;;;20.18;39.34;102065.06;20732481;27;97388;-76
2022/03/15 03:57:19;;;;;;;9.80;6.78;;;;;;;20.15;39.11;102066.94;20726298;27;99770;-77
2022/03/15 04:07:20;;;;;;;9.30;6.47;;;;;;;20.15;39.02;102063.44;20718189;27;96949;-77
2022/03/15 04:17:21;;;;;;;9.93;6.65;;;;;;;20.13;39.10;102058.25;20719390;27;98389;-76
2022/03/15 04:27:22;;;;;;;10.23;6.90;;;;;;;20.12;38.77;102063.59;20727180;27;97491;-76
2022/03/15 04:37:23;;;;;;;11.52;7.25;;;;;;;20.09;38.96;102075.13;20687926;27;97852;-75
2022/03/15 04:47:24;;;;;;;9.50;6.95;;;;;;;20.06;38.68;102083.13;20690125;27;98128;-76
2022/03/15 04:57:24;;;;;;;9.90;6.85;;;;;;;20.02;39.06;102097.34;20727916;27;97431;-77
2022/03/15 05:07:25;;;;;;;10.82;7.18;;;;;;;20.06;38.92;102091.03;20707304;27;97660;-77
2022/03/15 05:17:26;;;;;;;10.02;6.55;;;;;;;20.15;39.42;102105.53;20725476;27;97159;-77
2022/03/15 05:27:26;;;;;;;9.93;7.03;;;;;;;20.26;38.27;102102.41;20733312;27;98483;-78
2022/03/15 05:37:27;;;;;;;11.07;7.20;;;;;;;20.31;38.81;102098.66;20744813;27;97215;-78
2022/03/15 05:47:28;;;;;;;9.57;7.00;;;;;;;20.40;39.09;102089.47;20738828;27;98391;-76
2022/03/15 05:57:28;;;;;;;11.35;7.63;;;;;;;20.48;38.70;102078.56;20712640;27;97294;-77
2022/03/15 06:07:30;;;;;;;9.93;6.70;;;;;;;20.57;38.58;102085.19;20716552;27;98181;-77
2022/03/15 06:17:32;;;;;;;9.52;6.90;;;;;;;20.66;38.02;102092.63;20747224;27;97097;-77
2022/03/15 06:27:32;;;;;;;12.52;6.82;;;;;;;20.79;38.30;102090.28;20738701;27;100443;-76
2022/03/15 06:37:36;;;;;;;11.15;7.10;;;;;;;20.88;38.60;102094.25;20746155;27;97487;-76
2022/03/15 06:47:38;;;;;;;16.30;10.70;;;;;;;20.73;32.29;102093.22;20739732;27;97589;-76
2022/03/15 06:57:39;;;;;;;22.45;12.32;;;;;;;20.92;37.93;102082.63;20745765;27;101252;-77
2022/03/15 07:07:40;;;;;;;17.92;11.27;;;;;;;21.00;38.27;102072.56;20723842;27;97176;-76
2022/03/15 07:17:54;;;;;;;18.65;10.48;;;;;;;21.11;39.02;102074.69;20741127;27;97483;-75
2022/03/15 07:27:57;;;;;;;15.80;9.68;;;;;;;21.19;39.14;102069.88;20742282;27;99684;-74
2022/03/15 07:37:59;;;;;;;20.00;9.57;;;;;;;21.29;40.07;102070.25;20715687;27;97234;-74
2022/03/15 07:47:59;;;;;;;15.20;9.20;;;;;;;21.35;39.76;102074.34;20658704;27;98457;-74
2022/03/15 07:58:00;;;;;;;13.90;8.75;;;;;;;21.37;39.96;102080.41;20633193;28;100639;-74
2022/03/15 08:08:05;;;;;;;15.90;9.45;;;;;;;21.34;38.64;102072.66;20652044;28;98081;-75
2022/03/15 08:18:06;;;;;;;17.42;9.27;;;;;;;21.39;39.41;102071.47;20655557;28;99059;-79
2022/03/15 08:28:07;;;;;;;30.60;10.63;;;;;;;21.42;39.60;102066.06;20638629;28;97783;-76
2022/03/15 08:38:08;;;;;;;34.03;13.10;;;;;;;21.25;37.81;102058.16;20632694;28;97700;-76
2022/03/15 08:48:09;;;;;;;25.10;11.18;;;;;;;21.35;37.13;102050.63;20635903;28;99715;-75
2022/03/15 08:58:09;;;;;;;22.88;11.25;;;;;;;21.39;38.25;102041.66;20624780;28;97258;-76
2022/03/15 09:08:10;;;;;;;22.60;11.50;;;;;;;21.42;38.67;102030.94;20639192;28;97263;-76
2022/03/15 09:18:10;;;;;;;23.23;11.13;;;;;;;21.45;39.07;102014.97;20647964;28;96864;-75
2022/03/15 09:28:10;;;;;;;19.50;9.43;;;;;;;21.46;39.45;101984.19;20644737;28;96819;-76
2022/03/15 09:38:11;;;;;;;19.38;10.13;;;;;;;21.47;38.80;101972.72;20634545;28;96928;-76
2022/03/15 09:48:18;;;;;;;17.30;9.38;;;;;;;21.47;38.72;101970.94;20702760;27;96979;-76
2022/03/15 09:58:21;;;;;;;14.57;8.57;;;;;;;21.48;38.88;101959.44;20736399;27;100830;-76
2022/03/15 10:08:21;;;;;;;17.93;9.60;;;;;;;21.50;38.89;101949.69;20722654;27;97235;-77
2022/03/15 10:18:22;;;;;;;17.05;9.43;;;;;;;21.50;38.92;101931.25;20739350;27;97695;-77
2022/03/15 10:28:22;;;;;;;18.48;9.52;;;;;;;21.52;38.66;101926.75;20722257;27;101124;-76
2022/03/15 10:38:24;;;;;;;15.40;9.70;;;;;;;21.53;38.63;101914.41;20730961;27;97219;-76
2022/03/15 10:48:30;;;;;;;15.07;9.50;;;;;;;21.56;38.45;101891.41;20676193;27;97403;-76
2022/03/15 10:58:34;;;;;;;16.23;9.27;;;;;;;21.59;38.12;101879.84;20658316;28;97013;-77
2022/03/15 11:08:39;;;;;;;14.10;8.82;;;;;;;21.62;38.48;101836.63;20658090;28;97358;-77
2022/03/15 11:18:40;;;;;;;15.05;9.35;;;;;;;21.65;38.43;101824.13;20661835;28;97047;-77
2022/03/15 11:28:46;;;;;;;12.65;8.70;;;;;;;21.72;38.17;101800.91;20662292;28;97236;-76
2022/03/15 11:38:47;;;;;;;14.13;8.95;;;;;;;21.79;38.06;101765.34;20656558;28;96774;-77
2022/03/15 11:48:47;;;;;;;12.43;8.70;;;;;;;21.87;38.22;101746.44;20728681;27;97499;-77
2022/03/15 11:58:53;;;;;;;12.10;8.88;;;;;;;21.93;38.32;101730.25;20693036;28;96850;-77
2022/03/15 12:08:59;;;;;;;13.35;9.45;;;;;;;22.01;37.86;101704.28;20729396;27;97462;-77
2022/03/15 12:19:23;;;;;;;12.95;9.13;;;;;;;22.09;38.01;101693.25;20740151;27;101168;-76
2022/03/15 12:29:26;;;;;;;13.65;9.98;;;;;;;22.17;37.65;101669.06;20725097;27;100319;-77
2022/03/15 12:39:29;;;;;;;11.85;8.98;;;;;;;22.21;37.59;101650.28;20719037;27;98580;-77
2022/03/15 12:49:29;;;;;;;12.65;9.00;;;;;;;22.16;37.65;101639.19;20736977;27;97090;-77
2022/03/15 12:59:30;;;;;;;13.43;8.77;;;;;;;22.08;37.80;101620.34;20715460;27;96898;-77
2022/03/15 13:09:35;;;;;;;16.85;9.48;;;;;;;22.06;37.19;101611.69;20695932;27;100085;-76
2022/03/15 13:19:35;;;;;;;16.95;8.48;;;;;;;22.10;38.18;101609.72;20715603;27;97482;-78
2022/03/15 13:29:39;;;;;;;16.65;10.18;;;;;;;22.11;39.09;101592.94;20730518;27;97555;-77
2022/03/15 13:39:40;;;;;;;21.83;10.98;;;;;;;22.03;39.08;101602.19;20729923;27;96999;-77
2022/03/15 13:49:43;;;;;;;14.45;10.32;;;;;;;21.96;39.14;101576.25;20664951;28;96971;-76
2022/03/15 13:59:54;;;;;;;18.73;10.20;;;;;;;21.89;39.10;101559.97;20666628;28;96944;-76
2022/03/15 14:10:04;;;;;;;14.05;10.35;;;;;;;21.83;38.88;101545.38;20653358;28;97009;-76
2022/03/15 14:20:13;;;;;;;16.73;9.80;;;;;;;21.82;38.94;101527.84;20656565;28;97674;-77
2022/03/15 14:30:18;;;;;;;12.00;9.10;;;;;;;21.81;39.12;101504.22;20647983;28;98096;-77
2022/03/15 14:40:20;;;;;;;12.10;8.57;;;;;;;21.81;39.57;101497.16;20651757;28;100365;-76
2022/03/15 14:50:22;;;;;;;11.20;8.18;;;;;;;21.84;38.92;101482.97;20661194;28;100484;-76
2022/03/15 15:00:23;;;;;;;10.13;7.53;;;;;;;21.85;39.24;101461.75;20659779;28;97528;-75
2022/03/15 15:10:23;;;;;;;11.67;7.07;;;;;;;21.85;39.22;101471.44;20647786;28;98841;-78
2022/03/15 15:20:30;;;;;;;20.40;7.18;;;;;;;21.83;39.01;101468.09;20655184;28;98363;-82
2022/03/15 15:30:31;;;;;;;13.02;6.53;;;;;;;21.78;37.73;101463.09;20640085;28;99913;-79
2022/03/15 15:40:34;;;;;;;;;;;;;;;21.72;37.20;101469.59;20650790;28;97194;-77
2022/03/15 15:50:35;;;;;;;;;;;;;;;21.69;37.14;101461.88;20659835;28;96859;-81
2022/03/15 16:00:37;;;;;;;;;;;;;;;21.67;37.44;101439.22;20631599;28;98268;-75
2022/03/15 16:10:38;;;;;;;;;;;;;;;21.74;38.57;101428.16;20653209;28;97769;-78
2022/03/15 16:20:38;;;;;;;;;;;;;;;21.73;38.76;101426.47;20652009;28;101154;-77
2022/03/15 16:30:39;;;;;;;;;;;;;;;21.72;39.12;101416.88;20671968;28;97980;-81
2022/03/15 16:40:41;;;;;;;;;;;;;;;21.72;39.68;101401.03;20669466;28;97370;-80
2022/03/15 16:50:44;;;;;;;;;;;;;;;21.73;40.63;101396.63;20768474;27;97175;-80
2022/03/15 17:00:44;;;;;;;;;;;;;;;21.81;43.35;101385.59;20754483;27;101103;-80
2022/03/15 17:10:46;;;;;;;;;;;;;;;21.96;46.02;101378.47;20759174;27;96824;-80
2022/03/15 17:20:47;;;;;;;;;;;;;;;22.05;44.65;101360.25;20767509;27;98352;-81
2022/03/15 17:30:48;;;;;;;;;;;;;;;22.16;43.63;101371.91;20766469;27;99793;-80
2022/03/15 17:40:54;;;;;;;;;;;;;;;22.21;43.26;101336.34;20747584;27;96949;-80
2022/03/15 17:50:54;;;;;;;;;;;;;;;22.29;43.14;101340.25;20686581;28;96882;-78
2022/03/15 18:00:55;;;;;;;;;;;;;;;22.34;44.27;101325.00;20671364;28;96901;-77
2022/03/15 18:10:55;;;;;;;;;;;;;;;22.43;46.21;101337.56;20670452;28;97670;-77
2022/03/15 18:20:58;;;;;;;;;;;;;;;22.49;46.36;101325.75;20675708;28;97560;-82
2022/03/15 18:30:58;;;;;;;;;;;;;;;22.56;45.57;101311.19;20650743;28;97090;-75
2022/03/15 18:40:58;;;;;;;;;;;;;;;22.59;45.12;101304.88;20664823;28;97139;-80
2022/03/15 18:50:59;;;;;;;;;;;;;;;22.61;44.48;101298.53;20747809;27;98150;-78
2022/03/15 19:01:03;;;;;;;;;;;;;;;22.65;44.80;101273.59;20713959;27;101178;-77
2022/03/15 19:11:03;;;;;;;;;;;;;;;22.68;44.12;101269.91;20725007;27;99179;-77
2022/03/15 19:21:04;;;;;;;;;;;;;;;21.70;30.72;101260.63;20723714;27;99295;-78
2022/03/15 19:31:04;;;;;;;;;;;;;;;22.17;31.34;101254.91;20721423;27;97086;-78
2022/03/15 19:41:04;;;;;;;;;;;;;;;22.21;34.41;101243.19;20735544;27;96957;-77
2022/03/15 19:51:05;;;;;;;;;;;;;;;22.27;37.57;101234.00;20735417;27;97425;-77
2022/03/15 20:11:28;;;;;;;;;;;;;;;22.27;39.06;101195.25;20738291;27;105975;-77
2022/03/15 20:21:28;;;;;;;;;;;;;;;22.21;39.84;101174.59;20705371;27;100368;-78
2022/03/15 20:31:29;;;;;;;;;;;;;;;22.15;40.11;101164.47;20729235;27;101553;-77
2022/03/15 20:41:34;;;;;;;;;;;;;;;22.09;40.39;101141.16;20728888;27;97888;-78
2022/03/15 20:51:35;;;;;;;;;;;;;;;22.02;40.71;101138.09;20738155;27;97530;-78
2022/03/15 21:01:38;;;;;;;;;;;;;;;21.96;41.04;101127.97;20725584;27;100669;-78
2022/03/15 21:11:44;;;;;;;;;;;;;;;21.90;41.08;101119.53;20714646;27;96920;-78
2022/03/15 21:21:46;;;;;;;;;;;;;;;21.86;41.47;101110.16;20733840;27;99026;-77
2022/03/15 21:31:46;;;;;;;;;;;;;;;21.82;41.49;101099.91;20672659;27;97536;-78
2022/03/15 21:41:49;;;;;;;;;;;;;;;21.77;41.75;101084.41;20727105;27;97049;-78
2022/03/15 21:51:51;;;;;;;;;;;;;;;21.75;41.44;101084.53;20720951;27;98920;-77
2022/03/15 22:01:53;;;;;;;;;;;;;;;21.73;41.72;101069.78;20726230;27;98118;-77
2022/03/15 22:11:56;;;;;;;;;;;;;;;21.68;41.94;101054.25;20723757;27;98416;-77
2022/03/15 22:21:56;;;;;;;;;;;;;;;21.66;41.84;101031.59;20733123;27;100235;-77
2022/03/15 23:23:13;;;;;;;;;;;;;;;21.43;42.41;100971.63;20663465;28;98341;-78
2022/03/15 23:33:14;;;;;;;;;;;;;;;21.39;42.10;100943.78;20658334;28;97502;-77
2022/03/15 23:43:15;;;;;;;;;;;;;;;21.36;42.27;100922.94;20655212;28;98409;-79
2022/03/15 23:53:15;;;;;;;;;;;;;;;21.32;42.55;100883.75;20671377;28;99202;-79
